createdAt,value
2022-12-08T00:01:13.708Z,81.10
2022-12-08T00:03:40.954Z,81.37
2022-12-08T00:06:41.079Z,81.38
2022-12-08T00:09:38.663Z,81.68
2022-12-08T00:12:07.989Z,81.20
2022-12-08T00:14:37.649Z,81.37
2022-12-08T00:17:06.864Z,81.38
2022-12-08T00:19:34.290Z,81.04
2022-12-08T00:22:01.955Z,81.57
2022-12-08T00:24:35.104Z,80.95
2022-12-08T00:27:02.603Z,80.84
2022-12-08T00:29:29.781Z,81.02
2022-12-08T00:31:57.045Z,80.89
2022-12-08T00:34:24.350Z,81.08
2022-12-08T00:36:51.478Z,81.09
2022-12-08T00:39:21.768Z,81.31
2022-12-08T00:42:08.666Z,81.00
2022-12-08T00:44:35.687Z,81.11
2022-12-08T00:47:02.706Z,81.61
2022-12-08T00:49:29.743Z,80.96
2022-12-08T00:51:57.081Z,81.26
2022-12-08T00:54:24.157Z,81.20
2022-12-08T00:56:51.769Z,81.60
2022-12-08T00:59:18.832Z,81.04
2022-12-08T01:01:46.241Z,81.37
2022-12-08T01:04:16.223Z,81.39
2022-12-08T01:06:44.076Z,81.50
2022-12-08T01:09:18.217Z,81.34
2022-12-08T01:11:45.720Z,81.35
2022-12-08T01:14:13.649Z,81.31
2022-12-08T01:16:41.764Z,81.39
2022-12-08T01:19:12.351Z,81.54
2022-12-08T01:21:40.251Z,81.76
2022-12-08T01:24:07.810Z,81.75
2022-12-08T01:26:34.843Z,81.88
2022-12-08T01:29:02.161Z,81.21
2022-12-08T01:31:29.175Z,81.53
2022-12-08T01:33:56.635Z,81.28
2022-12-08T01:36:29.471Z,81.59
2022-12-08T01:39:01.113Z,81.83
2022-12-08T01:41:31.810Z,82.17
2022-12-08T01:44:04.217Z,82.72
2022-12-08T01:46:33.390Z,82.09
2022-12-08T01:49:14.922Z,82.04
2022-12-08T01:51:59.232Z,82.38
2022-12-08T01:54:31.092Z,82.57
2022-12-08T01:57:34.666Z,82.16
2022-12-08T02:00:08.844Z,82.37
2022-12-08T02:03:04.811Z,82.37
2022-12-08T02:05:35.292Z,82.46
2022-12-08T02:08:07.086Z,82.22
2022-12-08T02:10:38.118Z,82.68
2022-12-08T02:13:09.123Z,82.37
2022-12-08T02:16:00.662Z,82.56
2022-12-08T02:19:22.552Z,82.05
2022-12-08T02:22:11.461Z,82.23
2022-12-08T02:24:59.378Z,82.04
2022-12-08T02:27:49.428Z,82.28
2022-12-08T02:30:39.109Z,81.96
2022-12-08T02:34:03.530Z,82.05
2022-12-08T02:36:42.651Z,82.34
2022-12-08T02:39:12.594Z,81.87
2022-12-08T02:41:53.373Z,81.85
2022-12-08T02:44:31.883Z,81.81
2022-12-08T02:47:08.737Z,82.12
2022-12-08T02:49:36.173Z,82.09
2022-12-08T02:52:27.610Z,82.53
2022-12-08T02:55:02.281Z,82.43
2022-12-08T02:57:51.960Z,82.20
2022-12-08T03:00:21.991Z,82.48
2022-12-08T03:03:07.857Z,81.94
2022-12-08T03:05:56.787Z,82.38
2022-12-08T03:08:38.866Z,82.41
2022-12-08T03:11:21.446Z,82.05
2022-12-08T03:13:58.271Z,82.52
2022-12-08T03:16:29.496Z,82.48
2022-12-08T03:19:15.483Z,82.49
2022-12-08T03:21:47.208Z,82.29
2022-12-08T03:24:17.630Z,82.86
2022-12-08T03:26:57.180Z,82.72
2022-12-08T03:29:24.755Z,83.09
2022-12-08T03:32:14.455Z,82.83
2022-12-08T03:34:44.290Z,83.11
2022-12-08T03:37:11.265Z,83.00
2022-12-08T03:39:38.377Z,83.30
2022-12-08T03:42:05.400Z,83.16
2022-12-08T03:44:32.410Z,83.08
2022-12-08T03:46:59.493Z,83.14
2022-12-08T03:49:26.536Z,83.07
2022-12-08T03:51:53.514Z,83.22
2022-12-08T03:54:20.500Z,82.96
2022-12-08T03:56:47.605Z,83.56
2022-12-08T03:59:14.604Z,83.74
2022-12-08T04:01:41.608Z,83.88
2022-12-08T04:04:08.713Z,83.97
2022-12-08T04:06:35.832Z,84.05
2022-12-08T04:09:02.908Z,84.01
2022-12-08T04:11:29.813Z,84.23
2022-12-08T04:13:56.897Z,84.10
2022-12-08T04:16:26.648Z,84.25
2022-12-08T04:18:54.342Z,83.89
2022-12-08T04:21:22.099Z,83.34
2022-12-08T04:23:49.277Z,83.37
2022-12-08T04:26:16.822Z,83.96
2022-12-08T04:28:44.592Z,84.59
2022-12-08T04:31:11.861Z,85.02
2022-12-08T04:33:38.894Z,84.87
2022-12-08T04:36:06.851Z,84.65
2022-12-08T04:38:34.567Z,85.48
2022-12-08T04:41:01.839Z,85.49
2022-12-08T04:43:28.944Z,85.22
2022-12-08T04:45:56.362Z,85.47
2022-12-08T04:48:23.808Z,85.78
2022-12-08T04:50:51.860Z,86.15
2022-12-08T04:53:21.008Z,85.98
2022-12-08T04:55:49.765Z,86.21
2022-12-08T04:58:18.970Z,86.30
2022-12-08T05:00:47.620Z,86.16
2022-12-08T05:03:15.908Z,86.36
2022-12-08T05:05:45.606Z,86.96
2022-12-08T05:08:12.703Z,87.49
2022-12-08T05:10:40.500Z,86.84
2022-12-08T05:13:07.766Z,87.01
2022-12-08T05:15:34.737Z,87.55
2022-12-08T05:18:01.717Z,87.25
2022-12-08T05:20:28.743Z,87.87
2022-12-08T05:22:59.347Z,88.09
2022-12-08T05:25:26.827Z,87.72
2022-12-08T05:28:01.739Z,87.68
2022-12-08T05:30:38.801Z,87.62
2022-12-08T05:33:06.202Z,87.20
2022-12-08T05:35:33.212Z,87.35
2022-12-08T05:38:00.323Z,87.35
2022-12-08T05:40:27.321Z,86.74
2022-12-08T05:42:54.292Z,86.67
2022-12-08T05:45:23.786Z,86.60
2022-12-08T05:47:50.681Z,86.96
2022-12-08T05:50:17.670Z,86.43
2022-12-08T05:52:44.587Z,86.63
2022-12-08T05:55:11.592Z,86.24
2022-12-08T05:57:38.614Z,86.83
2022-12-08T06:00:10.981Z,86.46
2022-12-08T06:02:45.436Z,86.61
2022-12-08T06:05:12.943Z,85.89
2022-12-08T06:07:41.387Z,86.14
2022-12-08T06:10:09.200Z,86.07
2022-12-08T06:12:38.532Z,85.59
2022-12-08T06:15:05.940Z,85.84
2022-12-08T06:17:33.370Z,86.21
2022-12-08T06:20:01.165Z,85.90
2022-12-08T06:22:36.228Z,86.35
2022-12-08T06:25:07.296Z,86.50
2022-12-08T06:27:36.989Z,86.67
2022-12-08T06:30:07.292Z,86.51
2022-12-08T06:32:34.454Z,87.10
2022-12-08T06:35:01.709Z,87.08
2022-12-08T06:37:29.101Z,86.73
2022-12-08T06:39:56.934Z,86.96
2022-12-08T06:42:43.720Z,86.74
2022-12-08T06:45:22.123Z,87.06
2022-12-08T06:47:51.808Z,87.17
2022-12-08T06:50:18.839Z,87.05
2022-12-08T06:52:56.929Z,87.02
2022-12-08T06:58:32.958Z,86.17
2022-12-08T07:01:11.742Z,86.85
2022-12-08T07:03:40.004Z,86.42
2022-12-08T07:06:07.791Z,85.70
2022-12-08T07:08:35.820Z,85.25
2022-12-08T07:11:08.785Z,85.50
2022-12-08T07:13:36.348Z,85.29
2022-12-08T07:16:09.531Z,85.42
2022-12-08T07:18:38.016Z,85.52
2022-12-08T07:21:07.277Z,84.47
2022-12-08T07:23:34.997Z,84.50
2022-12-08T07:26:04.465Z,84.19
2022-12-08T07:28:37.008Z,84.29
2022-12-08T07:31:05.487Z,83.68
2022-12-08T07:33:33.700Z,83.79
2022-12-08T07:36:04.610Z,83.90
2022-12-08T07:38:31.994Z,83.52
2022-12-08T07:40:59.326Z,83.06
2022-12-08T07:43:30.672Z,82.77
2022-12-08T07:46:19.066Z,82.89
2022-12-08T07:49:00.437Z,82.23
2022-12-08T07:51:31.292Z,82.49
2022-12-08T07:53:59.094Z,82.16
2022-12-08T07:56:27.751Z,82.40
2022-12-08T07:58:55.908Z,82.24
2022-12-08T08:01:37.226Z,81.96
2022-12-08T08:04:05.937Z,81.78
2022-12-08T08:06:34.489Z,82.02
2022-12-08T08:09:01.543Z,82.03
2022-12-08T08:11:28.568Z,81.96
2022-12-08T08:13:56.847Z,81.69
2022-12-08T08:16:24.543Z,81.76
2022-12-08T08:18:52.238Z,81.90
2022-12-08T08:21:44.390Z,81.23
2022-12-08T08:24:09.671Z,81.10
2022-12-08T08:26:37.940Z,80.80
2022-12-08T08:29:05.019Z,81.04
2022-12-08T08:31:32.042Z,80.87
2022-12-08T08:34:00.769Z,80.72
2022-12-08T08:36:27.635Z,81.16
2022-12-08T08:38:54.643Z,80.75
2022-12-08T08:41:25.335Z,80.21
2022-12-08T08:44:13.688Z,79.95
2022-12-08T08:46:42.846Z,80.55
2022-12-08T08:49:13.871Z,80.16
2022-12-08T08:51:43.655Z,80.05
2022-12-08T08:54:11.486Z,79.73
2022-12-08T08:56:42.351Z,79.69
2022-12-08T08:59:15.769Z,79.12
2022-12-08T09:01:53.345Z,79.40
2022-12-08T09:04:31.704Z,79.89
2022-12-08T09:07:00.644Z,79.81
2022-12-08T09:09:57.045Z,79.87
2022-12-08T09:12:31.090Z,79.83
2022-12-08T09:15:01.892Z,79.82
2022-12-08T09:17:31.054Z,80.16
2022-12-08T09:19:58.075Z,80.47
2022-12-08T09:22:25.009Z,80.63
2022-12-08T09:24:53.516Z,80.42
2022-12-08T09:27:21.562Z,80.76
2022-12-08T09:29:48.673Z,80.34
2022-12-08T09:32:15.993Z,80.75
2022-12-08T09:34:47.610Z,80.65
2022-12-08T09:37:18.843Z,79.92
2022-12-08T09:39:48.702Z,80.13
2022-12-08T09:42:45.235Z,80.46
2022-12-08T09:45:14.246Z,80.43
2022-12-08T09:47:47.167Z,80.27
2022-12-08T09:50:28.082Z,80.17
2022-12-08T09:53:09.099Z,80.23
2022-12-08T09:55:42.682Z,79.92
2022-12-08T09:58:26.319Z,80.29
2022-12-08T10:00:53.896Z,79.25
2022-12-08T10:03:31.904Z,80.28
2022-12-08T10:06:13.818Z,80.07
2022-12-08T10:08:55.582Z,80.74
2022-12-08T10:11:53.568Z,80.32
2022-12-08T10:17:55.415Z,80.01
2022-12-08T10:23:39.684Z,81.34
2022-12-08T10:26:12.535Z,81.54
2022-12-08T10:28:44.751Z,82.09
2022-12-08T10:31:18.408Z,82.01
2022-12-08T10:33:48.469Z,82.60
2022-12-08T10:36:15.611Z,82.98
2022-12-08T10:38:42.554Z,82.70
2022-12-08T10:41:09.526Z,82.77
2022-12-08T10:43:44.203Z,83.18
2022-12-08T10:46:19.726Z,83.56
2022-12-08T10:49:13.484Z,83.08
2022-12-08T10:51:42.820Z,83.15
2022-12-08T10:54:38.461Z,83.45
2022-12-08T10:57:05.469Z,84.21
2022-12-08T10:59:33.852Z,84.20
2022-12-08T11:02:01.386Z,84.64
2022-12-08T11:04:36.935Z,84.10
2022-12-08T11:07:11.658Z,84.61
2022-12-08T11:09:49.006Z,85.06
2022-12-08T11:12:17.767Z,85.05
2022-12-08T11:14:44.760Z,85.86
2022-12-08T11:17:24.759Z,86.06
2022-12-08T11:19:56.399Z,86.95
2022-12-08T11:22:27.865Z,86.42
2022-12-08T11:25:36.872Z,87.43
2022-12-08T11:28:05.628Z,87.43
2022-12-08T11:30:40.224Z,87.67
2022-12-08T11:33:14.330Z,87.35
2022-12-08T11:35:45.259Z,86.77
2022-12-08T11:38:23.108Z,86.66
2022-12-08T11:41:15.816Z,86.21
2022-12-08T11:44:06.222Z,85.89
2022-12-08T11:46:40.667Z,86.80
2022-12-08T11:49:13.781Z,85.41
2022-12-08T11:52:05.505Z,86.29
2022-12-08T11:54:35.374Z,85.73
2022-12-08T11:57:13.333Z,85.58
2022-12-08T11:59:46.283Z,86.30
2022-12-08T12:02:20.478Z,86.57
2022-12-08T12:04:58.156Z,86.17
2022-12-08T12:08:02.878Z,85.39
2022-12-08T12:10:29.836Z,85.90
2022-12-08T12:13:13.462Z,86.07
2022-12-08T12:16:04.633Z,86.70
2022-12-08T12:19:02.186Z,85.47
2022-12-08T12:21:33.882Z,85.87
2022-12-08T12:24:06.453Z,85.42
2022-12-08T12:26:37.763Z,85.46
2022-12-08T12:29:20.329Z,85.96
2022-12-08T12:31:52.149Z,85.65
2022-12-08T12:34:35.218Z,85.22
2022-12-08T12:37:13.136Z,85.43
2022-12-08T12:39:55.217Z,85.82
2022-12-08T12:42:42.625Z,86.17
2022-12-08T12:45:27.758Z,85.28
2022-12-08T12:47:58.963Z,86.15
2022-12-08T12:50:35.222Z,84.77
2022-12-08T12:53:18.014Z,85.66
2022-12-08T12:56:03.534Z,86.17
2022-12-08T12:58:30.699Z,86.82
2022-12-08T13:01:13.236Z,85.32
2022-12-08T13:03:47.553Z,85.78
2022-12-08T13:06:21.734Z,85.78
2022-12-08T13:08:56.384Z,85.64
2022-12-08T13:11:25.155Z,87.12
2022-12-08T13:14:03.948Z,86.76
2022-12-08T13:16:54.800Z,86.30
2022-12-08T13:19:22.795Z,87.03
2022-12-08T13:21:52.256Z,87.19
2022-12-08T13:24:28.525Z,87.03
2022-12-08T13:27:06.798Z,87.72
2022-12-08T13:29:40.600Z,86.61
2022-12-08T13:32:07.720Z,86.44
2022-12-08T13:34:51.672Z,87.36
2022-12-08T13:37:50.746Z,87.49
2022-12-08T13:40:25.485Z,87.04
2022-12-08T13:43:19.683Z,86.96
2022-12-08T13:46:52.533Z,86.41
2022-12-08T13:57:48.573Z,86.08
2022-12-08T14:00:20.589Z,87.00
2022-12-08T14:02:50.219Z,86.78
2022-12-08T14:05:29.842Z,86.36
2022-12-08T14:08:51.036Z,86.03
2022-12-08T14:11:10.020Z,85.36
2022-12-08T14:13:37.011Z,85.58
2022-12-08T14:16:04.013Z,86.71
2022-12-08T14:18:32.063Z,85.52
2022-12-08T14:21:21.145Z,86.21
2022-12-08T14:23:48.831Z,85.53
2022-12-08T14:26:15.985Z,86.05
2022-12-08T14:28:45.202Z,85.96
2022-12-08T14:31:16.687Z,85.96
2022-12-08T14:33:43.803Z,86.43
2022-12-08T14:36:12.551Z,86.38
2022-12-08T14:38:39.638Z,86.12
2022-12-08T14:41:16.780Z,86.06
2022-12-08T14:43:44.243Z,85.33
2022-12-08T14:46:22.583Z,84.70
2022-12-08T14:48:49.816Z,85.56
2022-12-08T14:51:19.442Z,86.14
2022-12-08T14:53:52.455Z,85.10
2022-12-08T14:56:32.158Z,85.19
2022-12-08T14:59:17.657Z,85.12
2022-12-08T15:01:46.649Z,85.62
2022-12-08T15:04:13.833Z,86.19
2022-12-08T15:06:53.795Z,85.50
2022-12-08T15:09:41.658Z,85.40
2022-12-08T15:12:12.109Z,84.78
2022-12-08T15:15:01.572Z,85.98
2022-12-08T15:17:41.196Z,85.66
2022-12-08T15:20:34.551Z,85.29
2022-12-08T15:23:04.170Z,85.46
2022-12-08T15:25:32.045Z,85.94
2022-12-08T15:28:04.951Z,86.37
2022-12-08T15:30:34.822Z,85.79
2022-12-08T15:33:02.215Z,85.49
2022-12-08T15:35:35.963Z,85.66
2022-12-08T15:38:20.745Z,86.09
2022-12-08T15:40:48.711Z,86.54
2022-12-08T15:43:19.465Z,85.75
2022-12-08T15:45:59.062Z,85.98
2022-12-08T15:48:30.794Z,86.29
2022-12-08T15:51:00.733Z,86.73
2022-12-08T15:53:30.514Z,85.60
2022-12-08T15:56:26.525Z,86.51
2022-12-08T15:58:55.231Z,85.79
2022-12-08T16:01:24.215Z,86.19
2022-12-08T16:09:36.322Z,86.78
2022-12-08T16:12:22.411Z,86.51
2022-12-08T16:17:37.816Z,86.84
2022-12-08T16:20:16.896Z,86.60
2022-12-08T16:22:59.253Z,86.29
2022-12-08T16:26:09.081Z,86.83
2022-12-08T16:28:53.559Z,86.60
2022-12-08T16:31:20.059Z,87.21
2022-12-08T16:33:53.067Z,87.33
2022-12-08T16:36:20.398Z,86.84
2022-12-08T16:38:47.499Z,86.89
2022-12-08T16:41:34.942Z,87.34
2022-12-08T16:44:04.674Z,87.63
2022-12-08T16:46:39.880Z,88.07
2022-12-08T16:49:09.375Z,87.53
2022-12-08T16:51:36.508Z,88.46
2022-12-08T16:54:03.682Z,87.67
2022-12-08T16:56:33.821Z,88.52
2022-12-08T16:59:01.804Z,89.31
2022-12-08T17:01:28.846Z,88.46
2022-12-08T17:04:29.175Z,89.52
2022-12-08T17:06:43.034Z,88.24
2022-12-08T17:09:10.046Z,88.90
2022-12-08T17:11:43.019Z,89.93
2022-12-08T17:14:12.456Z,89.46
2022-12-08T17:16:39.768Z,89.33
2022-12-08T17:19:06.953Z,89.44
2022-12-08T17:21:34.058Z,89.40
2022-12-08T17:24:01.224Z,89.43
2022-12-08T17:26:28.407Z,89.93
2022-12-08T17:29:02.747Z,90.37
2022-12-08T17:31:32.128Z,89.79
2022-12-08T17:34:12.789Z,90.72
2022-12-08T17:36:42.000Z,90.51
2022-12-08T17:39:13.430Z,90.46
2022-12-08T17:41:43.983Z,89.88
2022-12-08T17:44:17.383Z,90.86
2022-12-08T17:46:50.684Z,91.23
2022-12-08T17:49:23.584Z,91.07
2022-12-08T17:51:54.119Z,91.14
2022-12-08T17:54:21.932Z,91.50
2022-12-08T17:56:49.039Z,91.86
2022-12-08T17:59:16.309Z,91.45
2022-12-08T18:01:43.963Z,91.66
2022-12-08T18:04:12.438Z,91.80
2022-12-08T18:06:40.045Z,92.24
2022-12-08T18:09:08.065Z,91.78
2022-12-08T18:11:36.045Z,92.93
2022-12-08T18:14:09.995Z,92.26
2022-12-08T18:16:39.728Z,92.84
2022-12-08T18:19:08.201Z,92.83
2022-12-08T18:21:36.736Z,92.79
2022-12-08T18:24:04.684Z,93.37
2022-12-08T18:26:32.455Z,92.85
2022-12-08T18:29:00.453Z,93.55
2022-12-08T18:31:27.853Z,93.47
2022-12-08T18:33:55.154Z,94.33
2022-12-08T18:36:24.751Z,93.80
2022-12-08T18:38:52.909Z,94.58
2022-12-08T18:41:26.388Z,94.46
2022-12-08T18:43:55.385Z,94.81
2022-12-08T18:46:25.674Z,95.07
2022-12-08T18:48:53.139Z,95.35
2022-12-08T18:51:22.873Z,94.95
2022-12-08T18:53:50.638Z,95.11
2022-12-08T18:56:26.936Z,96.31
2022-12-08T18:59:01.329Z,95.94
2022-12-08T19:01:30.359Z,96.49
2022-12-08T19:04:26.588Z,96.16
2022-12-08T19:06:46.629Z,96.39
2022-12-08T19:09:15.419Z,96.21
2022-12-08T19:11:43.244Z,96.21
2022-12-08T19:14:12.053Z,97.42
2022-12-08T19:16:39.335Z,96.79
2022-12-08T19:19:06.427Z,96.71
2022-12-08T19:21:34.158Z,97.16
2022-12-08T19:24:01.840Z,97.04
2022-12-08T19:26:29.137Z,96.92
2022-12-08T19:28:57.684Z,98.30
2022-12-08T19:31:24.990Z,97.46
2022-12-08T19:33:52.321Z,98.11
2022-12-08T19:36:22.446Z,98.04
2022-12-08T19:39:09.134Z,97.86
2022-12-08T19:41:56.145Z,97.55
2022-12-08T19:44:47.514Z,97.98
2022-12-08T19:47:15.463Z,98.46
2022-12-08T19:49:42.749Z,98.79
2022-12-08T19:52:10.118Z,98.17
2022-12-08T19:54:37.150Z,98.84
2022-12-08T19:57:04.363Z,98.40
2022-12-08T19:59:31.671Z,98.76
2022-12-08T20:01:59.065Z,99.21
2022-12-08T20:04:27.690Z,99.29
2022-12-08T20:06:56.626Z,98.96
2022-12-08T20:09:24.819Z,98.98
2022-12-08T20:11:54.784Z,99.28
2022-12-08T20:14:23.381Z,98.82
2022-12-08T20:16:51.104Z,99.14
2022-12-08T20:19:18.648Z,99.60
2022-12-08T20:21:46.007Z,99.47
2022-12-08T20:24:26.646Z,99.95
2022-12-08T20:26:56.421Z,99.09
2022-12-08T20:29:23.403Z,99.77
2022-12-08T20:31:50.559Z,99.18
2022-12-08T20:34:19.184Z,99.17
2022-12-08T20:36:46.876Z,99.67
2022-12-08T20:39:16.963Z,99.59
2022-12-08T20:41:45.502Z,99.14
2022-12-08T20:44:12.875Z,99.13
2022-12-08T20:46:42.763Z,99.56
2022-12-08T20:49:13.664Z,98.89
2022-12-08T20:51:41.839Z,98.96
2022-12-08T20:54:10.205Z,98.76
2022-12-08T20:56:37.362Z,98.69
2022-12-08T20:59:04.361Z,98.79
2022-12-08T21:01:31.795Z,98.75
2022-12-08T21:03:59.996Z,98.68
2022-12-08T21:06:38.850Z,98.37
2022-12-08T21:09:07.333Z,98.01
2022-12-08T21:11:35.893Z,98.23
2022-12-08T21:14:03.065Z,98.45
2022-12-08T21:19:31.262Z,98.04
2022-12-08T21:21:58.585Z,98.78
2022-12-08T21:24:30.313Z,97.97
2022-12-08T21:27:00.813Z,97.99
2022-12-08T21:29:27.801Z,98.07
2022-12-08T21:31:57.370Z,98.04
2022-12-08T21:34:25.782Z,98.43
2022-12-08T21:36:53.293Z,98.07
2022-12-08T21:39:20.759Z,98.44
2022-12-08T21:42:06.284Z,98.19
2022-12-08T21:44:36.608Z,97.94
2022-12-08T21:47:05.989Z,98.47
2022-12-08T21:49:33.352Z,98.34
2022-12-08T21:52:00.590Z,98.31
2022-12-08T21:54:27.768Z,97.87
2022-12-08T21:56:54.999Z,97.72
2022-12-08T21:59:22.018Z,98.30
2022-12-08T22:01:49.306Z,98.30
2022-12-08T22:04:18.990Z,97.91
2022-12-08T22:06:46.342Z,98.09
2022-12-08T22:09:15.251Z,98.31
2022-12-08T22:11:43.954Z,98.25
2022-12-08T22:14:14.913Z,98.27
2022-12-08T22:16:43.464Z,98.33
2022-12-08T22:19:11.168Z,97.81
2022-12-08T22:21:38.782Z,98.09
2022-12-08T22:24:06.383Z,98.50
2022-12-08T22:26:34.081Z,98.34
2022-12-08T22:29:01.718Z,98.46
2022-12-08T22:31:28.875Z,98.47
2022-12-08T22:34:02.543Z,98.86
2022-12-08T22:36:30.454Z,98.91
2022-12-08T22:38:57.613Z,98.81
2022-12-08T22:41:25.056Z,98.12
2022-12-08T22:43:52.733Z,98.71
2022-12-08T22:46:26.685Z,98.70
2022-12-08T22:48:55.229Z,99.00
2022-12-08T22:51:22.521Z,98.86
2022-12-08T22:53:50.189Z,98.99
2022-12-08T22:56:18.700Z,98.67
2022-12-08T22:58:46.064Z,98.28
2022-12-08T23:01:29.512Z,98.68
2022-12-08T23:03:58.156Z,99.17
2022-12-08T23:06:27.136Z,98.62
2022-12-08T23:08:54.721Z,98.84
2022-12-08T23:11:25.241Z,98.59
2022-12-08T23:13:53.276Z,98.24
2022-12-08T23:16:32.104Z,98.32
2022-12-08T23:19:05.585Z,98.25
2022-12-08T23:21:44.216Z,97.42
2022-12-08T23:24:13.028Z,98.30
2022-12-08T23:26:40.233Z,97.97
2022-12-08T23:29:10.529Z,97.17
2022-12-08T23:32:07.199Z,97.40
2022-12-08T23:34:34.880Z,97.57
2022-12-08T23:37:02.210Z,97.32
2022-12-08T23:42:31.019Z,97.09
2022-12-08T23:44:58.416Z,97.14
2022-12-08T23:47:25.656Z,97.07
2022-12-08T23:49:52.965Z,97.32
2022-12-08T23:52:19.943Z,97.03
2022-12-08T23:54:49.485Z,97.14
2022-12-08T23:57:17.465Z,96.91
2022-12-08T23:59:45.026Z,96.74
